Nanticoke — VCQL — position and weather

sailwx.info

Track history (hours):
 
Tides and Currents Weather Stations Pressure Air Temp Water Temp Dewpoint Dewpoint Depression Visibility Wind Speed Wind Dir Waves Ship Positions

Nanticoke

Last reported at 2015-Aug-26 19:04 UTC. Time now 2015-Aug-30 10:00 UTC.
Position N 50°23' W 058°21'.

Length 222 m; draft 7.5 m.

Type: Cargo ship. MMSI: 316043000.

Date/timePositionNaut miles runAvg speedWind from/ knotsBaromVisibWave heightAir tempDewpointWater temp
2015-Aug-26 19:04N 50°23' W 058°21'912.2
2015-Aug-26 18:20N 50°30' W 058°13'912.1
2015-Aug-26 17:33N 50°38' W 058°05'1212.4
2015-Aug-26 16:34N 50°48' W 057°54'1212.5
2015-Aug-26 15:33N 50°59' W 057°42'1212.2
2015-Aug-26 14:32N 51°09' W 057°31'1212.5
2015-Aug-26 13:33N 51°15' W 057°14'1212.2
2015-Aug-26 12:33N 51°22' W 056°58'  
2015-Aug-24 07:16N 51°22' W 056°47'912.6
2015-Aug-24 06:33N 51°17' W 056°59'1212.4
2015-Aug-24 05:33N 51°10' W 057°15'1212.5
2015-Aug-24 04:33N 51°03' W 057°32'1212.1
2015-Aug-24 03:33N 50°58' W 057°49'1212.2
2015-Aug-24 02:33N 50°52' W 058°06'1212.0
2015-Aug-24 01:33N 50°47' W 058°23'1211.8
2015-Aug-24 00:33N 50°41' W 058°40'1211.7
2015-Aug-23 23:33N 50°36' W 058°56'6211.4
2015-Aug-23 18:08N 49°46' W 059°52'2212.6
2015-Aug-23 16:26N 49°26' W 060°05'  
2015-Aug-20 18:28N 46°35' W 072°01'1112.2
2015-Aug-20 17:33N 46°29' W 072°14'1312.9
2015-Aug-20 16:33N 46°21' W 072°30'1111.4
2015-Aug-20 15:33N 46°15' W 072°44'1313.1
2015-Aug-20 14:32N 46°06' W 072°58'0 0.0
2015-Aug-19 15:22N 46°07' W 072°58'7 8.5
2015-Aug-19 14:33N 46°12' W 072°52'9 9.2
2015-Aug-19 13:33N 46°16' W 072°40'7 7.5
2015-Aug-19 12:33N 46°21' W 072°31'8 8.3
2015-Aug-19 11:33N 46°26' W 072°22'8 7.5
2015-Aug-19 10:33N 46°30' W 072°14'  
Track history (hours):
 
Tides and Currents Weather Stations Pressure Air Temp Water Temp Dewpoint Dewpoint Depression Visibility Wind Speed Wind Dir Waves Ship Positions

Nanticoke

Last reported at 2015-Aug-26 19:04 UTC. Time now 2015-Aug-30 10:00 UTC.
Position N 50°23' W 058°21'.

Length 222 m; draft 7.5 m.

Type: Cargo ship. MMSI: 316043000.

Date/timePositionNaut miles runAvg speedWind from/ knotsBaromVisibWave heightAir tempDewpointWater temp
2015-Aug-26 19:04N 50°23' W 058°21'912.2
2015-Aug-26 18:20N 50°30' W 058°13'912.1
2015-Aug-26 17:33N 50°38' W 058°05'1212.4
2015-Aug-26 16:34N 50°48' W 057°54'1212.5
2015-Aug-26 15:33N 50°59' W 057°42'1212.2
2015-Aug-26 14:32N 51°09' W 057°31'1212.5
2015-Aug-26 13:33N 51°15' W 057°14'1212.2
2015-Aug-26 12:33N 51°22' W 056°58'  
2015-Aug-24 07:16N 51°22' W 056°47'912.6
2015-Aug-24 06:33N 51°17' W 056°59'1212.4
2015-Aug-24 05:33N 51°10' W 057°15'1212.5
2015-Aug-24 04:33N 51°03' W 057°32'1212.1
2015-Aug-24 03:33N 50°58' W 057°49'1212.2
2015-Aug-24 02:33N 50°52' W 058°06'1212.0
2015-Aug-24 01:33N 50°47' W 058°23'1211.8
2015-Aug-24 00:33N 50°41' W 058°40'1211.7
2015-Aug-23 23:33N 50°36' W 058°56'6211.4
2015-Aug-23 18:08N 49°46' W 059°52'2212.6
2015-Aug-23 16:26N 49°26' W 060°05'  
2015-Aug-20 18:28N 46°35' W 072°01'1112.2
2015-Aug-20 17:33N 46°29' W 072°14'1312.9
2015-Aug-20 16:33N 46°21' W 072°30'1111.4
2015-Aug-20 15:33N 46°15' W 072°44'1313.1
2015-Aug-20 14:32N 46°06' W 072°58'0 0.0
2015-Aug-19 15:22N 46°07' W 072°58'7 8.5
2015-Aug-19 14:33N 46°12' W 072°52'9 9.2
2015-Aug-19 13:33N 46°16' W 072°40'7 7.5
2015-Aug-19 12:33N 46°21' W 072°31'8 8.3
2015-Aug-19 11:33N 46°26' W 072°22'8 7.5
2015-Aug-19 10:33N 46°30' W 072°14'  

Dump ship's entire track history